Potomac — WBF7534 — position and weather

sailwx.info

Track history (hours):
 
Tides and Currents Weather Stations Pressure Air Temp Water Temp Dewpoint Dewpoint Depression Visibility Wind Speed Wind Dir Waves Ship Positions

Potomac

Owner: POTOMAC ASSOCIATION, OAKLAND, CA. More information available from US FCC via Universal Licensing System and Coast Guard Vessel Documentation Center.

Last reported at 2015-May-17 03:03 UTC. Time now 2015-May-22 23:40 UTC.
Position N 37°48' W 122°17'.

Length 51 m; draft 3.1 m.

MMSI: 367166810.

Date/timePositionNaut miles runAvg speedWind from/ knotsBaromVisibWave heightAir tempDewpointWater temp
2015-May-17 03:03N 37°48' W 122°17'4 8.9
2015-May-17 02:33N 37°47' W 122°22'7 6.7
2015-May-17 01:33N 37°52' W 122°29'7 7.4
2015-May-17 00:33N 37°48' W 122°20'3 2.9
2015-May-16 23:33N 37°48' W 122°17'0 0.0
2015-May-16 22:21N 37°48' W 122°17'0 0.0
2015-May-14 20:33N 37°48' W 122°17'0 0.1
2015-May-14 19:32N 37°48' W 122°17'0 0.0
2015-May-14 18:32N 37°48' W 122°17'0 0.0
2015-May-14 17:33N 37°48' W 122°17'  
2015-May-10 21:33N 37°48' W 122°17'8 7.9
2015-May-10 20:33N 37°49' W 122°27'4 3.6
2015-May-10 19:33N 37°52' W 122°25'8 7.1
2015-May-10 18:28N 37°48' W 122°17'0 0.0
2015-May-09 19:33N 37°48' W 122°17'9 8.0
2015-May-09 18:28N 37°52' W 122°26'9 9.6
2015-May-09 17:33N 37°48' W 122°17'0 0.1
2015-May-09 16:31N 37°48' W 122°17'0 0.0
2015-May-07 21:26N 37°48' W 122°17'3 3.1
2015-May-07 20:33N 37°49' W 122°20'  
Track history (hours):
 
Tides and Currents Weather Stations Pressure Air Temp Water Temp Dewpoint Dewpoint Depression Visibility Wind Speed Wind Dir Waves Ship Positions

Potomac

Owner: POTOMAC ASSOCIATION, OAKLAND, CA. More information available from US FCC via Universal Licensing System and Coast Guard Vessel Documentation Center.

Last reported at 2015-May-17 03:03 UTC. Time now 2015-May-22 23:40 UTC.
Position N 37°48' W 122°17'.

Length 51 m; draft 3.1 m.

MMSI: 367166810.

Date/timePositionNaut miles runAvg speedWind from/ knotsBaromVisibWave heightAir tempDewpointWater temp
2015-May-17 03:03N 37°48' W 122°17'4 8.9
2015-May-17 02:33N 37°47' W 122°22'7 6.7
2015-May-17 01:33N 37°52' W 122°29'7 7.4
2015-May-17 00:33N 37°48' W 122°20'3 2.9
2015-May-16 23:33N 37°48' W 122°17'0 0.0
2015-May-16 22:21N 37°48' W 122°17'0 0.0
2015-May-14 20:33N 37°48' W 122°17'0 0.1
2015-May-14 19:32N 37°48' W 122°17'0 0.0
2015-May-14 18:32N 37°48' W 122°17'0 0.0
2015-May-14 17:33N 37°48' W 122°17'  
2015-May-10 21:33N 37°48' W 122°17'8 7.9
2015-May-10 20:33N 37°49' W 122°27'4 3.6
2015-May-10 19:33N 37°52' W 122°25'8 7.1
2015-May-10 18:28N 37°48' W 122°17'0 0.0
2015-May-09 19:33N 37°48' W 122°17'9 8.0
2015-May-09 18:28N 37°52' W 122°26'9 9.6
2015-May-09 17:33N 37°48' W 122°17'0 0.1
2015-May-09 16:31N 37°48' W 122°17'0 0.0
2015-May-07 21:26N 37°48' W 122°17'3 3.1
2015-May-07 20:33N 37°49' W 122°20'  

Dump ship's entire track history